Time;durP1;ratioP1;P1;durP2;ratioP2;P2;SDS_P1;SDS_P2;PMS_P1;PMS_P2;Temp;Humidity;BMP_temperature;BMP_pressure;BME280_temperature;BME280_humidity;BME280_pressure;Samples;Min_cycle;Max_cycle;Signal;HPM_P1;HPM_P2
2020/12/27 00:01:06;;;;;;;22.30;4.55;;;15.20;99.90;;;;;;4134556;34;20096;-84
2020/12/27 00:03:34;;;;;;;26.62;4.07;;;15.30;99.90;;;;;;4117116;34;20125;-89
2020/12/27 00:06:02;;;;;;;35.47;6.37;;;15.90;99.90;;;;;;4120240;34;20072;-86
2020/12/27 00:08:30;;;;;;;28.85;5.65;;;15.90;99.90;;;;;;4127056;34;20157;-89
2020/12/27 00:10:58;;;;;;;31.10;4.47;;;16.30;99.90;;;;;;4135319;34;20075;-84
2020/12/27 00:13:26;;;;;;;22.20;4.40;;;16.10;99.90;;;;;;4132865;34;20130;-83
2020/12/27 00:15:54;;;;;;;36.60;4.03;;;16.50;99.90;;;;;;4118998;34;20119;-89
2020/12/27 00:18:22;;;;;;;35.67;5.18;;;16.30;99.90;;;;;;4103055;34;20045;-86
2020/12/27 00:20:49;;;;;;;32.53;5.30;;;16.70;99.90;;;;;;4103536;34;20629;-90
2020/12/27 00:23:17;;;;;;;30.65;5.60;;;16.80;99.90;;;;;;4119734;34;20120;-86
2020/12/27 00:25:45;;;;;;;24.20;5.10;;;16.80;99.90;;;;;;4121579;34;20069;-85
2020/12/27 00:28:14;;;;;;;29.00;4.55;;;16.80;99.90;;;;;;4131243;34;20104;-85
2020/12/27 00:30:41;;;;;;;33.47;5.70;;;16.70;99.90;;;;;;4113134;34;20188;-90
2020/12/27 00:33:10;;;;;;;20.55;4.20;;;16.40;99.90;;;;;;4127886;34;20155;-88
2020/12/27 00:35:37;;;;;;;20.10;4.55;;;16.30;99.90;;;;;;4131951;34;20104;-89
2020/12/27 00:38:05;;;;;;;30.12;4.47;;;16.00;99.90;;;;;;4116593;34;20069;-86
2020/12/27 00:40:33;;;;;;;37.90;6.20;;;15.90;99.90;;;;;;4126155;34;20108;-86
2020/12/27 00:43:01;;;;;;;36.35;5.68;;;16.00;99.90;;;;;;4093516;34;20134;-89
2020/12/27 00:45:30;;;;;;;24.42;5.28;;;16.20;99.90;;;;;;4117314;34;20147;-83
2020/12/27 00:48:01;;;;;;;34.85;4.93;;;16.20;99.90;;;;;;4140919;34;20139;-85
2020/12/27 00:50:29;;;;;;;22.80;4.80;;;16.30;99.90;;;;;;4122080;34;20107;-90
2020/12/27 00:52:57;;;;;;;31.27;4.37;;;16.30;99.90;;;;;;4129729;34;20524;-91
2020/12/27 00:55:25;;;;;;;21.02;4.80;;;16.30;99.90;;;;;;4130731;34;20140;-82
2020/12/27 00:57:54;;;;;;;27.75;4.80;;;16.60;99.90;;;;;;4121935;34;20138;-87
2020/12/27 01:00:21;;;;;;;22.08;4.05;;;16.60;99.90;;;;;;4121076;34;20058;-85
2020/12/27 01:02:50;;;;;;;24.75;4.57;;;16.70;99.90;;;;;;4126119;34;20056;-85
2020/12/27 01:05:24;;;;;;;13.90;3.25;;;16.90;99.90;;;;;;4126213;34;20135;-87
2020/12/27 01:07:52;;;;;;;18.85;4.05;;;17.00;99.90;;;;;;4127173;34;20129;-89
2020/12/27 01:10:20;;;;;;;22.58;4.57;;;16.80;98.50;;;;;;4128904;34;20140;-90
2020/12/27 01:12:48;;;;;;;35.15;4.90;;;16.80;98.50;;;;;;4132854;34;20110;-89
2020/12/27 01:15:17;;;;;;;24.02;5.60;;;16.70;98.70;;;;;;4128913;34;20061;-88
2020/12/27 01:17:48;;;;;;;36.88;3.85;;;16.60;99.10;;;;;;4119226;34;20802;-90
2020/12/27 01:20:16;;;;;;;25.02;4.75;;;16.90;98.70;;;;;;4120766;34;20131;-87
2020/12/27 01:22:44;;;;;;;16.85;4.28;;;17.10;98.20;;;;;;4126294;34;20061;-87
2020/12/27 01:25:12;;;;;;;27.20;5.40;;;17.00;98.40;;;;;;4137410;34;20130;-89
2020/12/27 01:27:40;;;;;;;25.60;4.72;;;17.10;98.50;;;;;;4143214;34;20078;-90
2020/12/27 01:30:08;;;;;;;26.33;4.32;;;17.20;98.00;;;;;;4131700;34;20154;-86
2020/12/27 01:32:37;;;;;;;30.23;4.43;;;17.10;98.50;;;;;;4140948;34;20061;-85
2020/12/27 01:35:06;;;;;;;31.10;5.10;;;17.30;98.20;;;;;;4136864;34;20604;-89
2020/12/27 01:37:34;;;;;;;34.70;4.62;;;17.20;99.10;;;;;;4136384;34;20108;-86
2020/12/27 01:40:02;;;;;;;23.33;4.68;;;17.40;98.10;;;;;;4125769;34;20128;-87
2020/12/27 01:42:31;;;;;;;29.33;7.05;;;17.50;98.30;;;;;;4140020;34;20104;-86
2020/12/27 01:45:00;;;;;;;28.75;7.47;;;17.40;98.90;;;;;;4140381;34;20068;-87
2020/12/27 01:47:34;;;;;;;21.90;6.15;;;17.30;99.30;;;;;;4111733;34;20143;-85
2020/12/27 01:50:03;;;;;;;35.65;4.72;;;17.40;99.10;;;;;;4131662;34;20130;-85
2020/12/27 01:52:31;;;;;;;21.87;3.83;;;17.30;99.70;;;;;;4128881;34;20073;-87
2020/12/27 01:55:00;;;;;;;19.42;3.10;;;17.30;99.90;;;;;;4129144;34;20099;-88
2020/12/27 01:57:53;;;;;;;25.62;3.40;;;17.30;99.90;;;;;;4132068;34;20064;-83
2020/12/27 02:00:21;;;;;;;23.52;4.00;;;17.30;99.90;;;;;;4123946;34;20069;-84
2020/12/27 02:02:51;;;;;;;24.40;5.00;;;17.30;99.90;;;;;;4137315;34;20120;-88
2020/12/27 02:05:19;;;;;;;19.83;4.40;;;17.30;99.90;;;;;;4124599;34;20082;-86
2020/12/27 02:07:48;;;;;;;17.48;4.00;;;17.20;99.90;;;;;;4124034;34;20118;-83
2020/12/27 02:10:17;;;;;;;24.42;4.20;;;17.20;99.90;;;;;;4107953;34;20108;-90
2020/12/27 02:12:44;;;;;;;21.62;4.78;;;17.30;99.90;;;;;;4130593;34;20073;-86
2020/12/27 02:15:14;;;;;;;15.00;4.25;;;17.30;99.90;;;;;;4139992;34;20161;-89
2020/12/27 02:17:45;;;;;;;15.43;4.22;;;17.30;99.90;;;;;;4132958;34;20512;-86
2020/12/27 02:20:14;;;;;;;20.80;4.82;;;17.40;99.90;;;;;;4123560;34;20124;-89
2020/12/27 02:22:43;;;;;;;20.12;3.70;;;17.30;99.90;;;;;;4143263;34;20129;-85
2020/12/27 02:25:12;;;;;;;26.12;5.97;;;17.40;99.90;;;;;;4137180;34;20111;-83
2020/12/27 02:27:41;;;;;;;17.23;4.40;;;17.20;99.90;;;;;;4122602;34;20041;-89
2020/12/27 02:30:10;;;;;;;25.20;4.12;;;17.20;99.90;;;;;;4139927;34;20545;-89
2020/12/27 02:32:40;;;;;;;27.85;5.07;;;17.30;99.90;;;;;;4124773;34;20083;-86
2020/12/27 02:35:08;;;;;;;21.65;4.20;;;17.10;99.90;;;;;;4133490;34;20135;-91
2020/12/27 02:37:36;;;;;;;19.85;4.28;;;17.20;99.90;;;;;;4121007;34;20108;-88
2020/12/27 02:40:04;;;;;;;17.87;4.35;;;17.20;99.90;;;;;;4140862;34;20112;-90
2020/12/27 02:42:34;;;;;;;17.55;3.55;;;17.20;99.90;;;;;;4126998;34;20151;-90
2020/12/27 02:47:33;;;;;;;22.87;4.15;;;17.10;99.90;;;;;;4121729;34;20706;-92
2020/12/27 02:50:08;;;;;;;23.80;4.12;;;17.20;99.90;;;;;;4129522;34;20064;-87
2020/12/27 02:52:38;;;;;;;21.45;4.22;;;17.10;99.90;;;;;;4131879;34;20087;-86
2020/12/27 02:55:07;;;;;;;20.15;4.93;;;17.10;99.90;;;;;;4118409;34;20114;-88
2020/12/27 02:57:36;;;;;;;31.33;4.07;;;17.20;99.90;;;;;;4138545;34;20503;-90
2020/12/27 03:00:05;;;;;;;24.98;6.32;;;17.20;99.90;;;;;;4139128;34;20149;-87
2020/12/27 03:02:34;;;;;;;33.95;5.95;;;17.20;99.90;;;;;;4142314;34;20108;-85
2020/12/27 03:05:03;;;;;;;22.65;10.27;;;17.30;99.90;;;;;;4135962;34;20100;-84
2020/12/27 03:07:31;;;;;;;25.37;10.90;;;17.30;99.90;;;;;;4141722;34;20084;-87
2020/12/27 03:09:59;;;;;;;24.05;13.75;;;17.30;99.90;;;;;;4135452;34;20056;-85
2020/12/27 03:12:28;;;;;;;22.48;6.72;;;17.30;99.90;;;;;;4483113;29;20419;-85
2020/12/27 03:14:56;;;;;;;25.45;11.82;;;17.30;99.90;;;;;;4120077;34;20177;-91
2020/12/27 03:17:26;;;;;;;27.05;11.80;;;17.20;99.90;;;;;;4124164;34;20132;-87
2020/12/27 03:19:54;;;;;;;26.80;11.50;;;17.20;99.90;;;;;;4112669;34;20080;-83
2020/12/27 03:22:52;;;;;;;24.30;14.35;;;17.20;99.90;;;;;;4543586;29;20083;31
2020/12/27 03:25:20;;;;;;;19.67;11.60;;;17.20;99.90;;;;;;4090258;34;20109;-83
2020/12/27 03:27:48;;;;;;;29.48;12.52;;;17.20;99.90;;;;;;4087773;34;20108;-83
2020/12/27 03:30:18;;;;;;;30.95;13.48;;;17.30;99.90;;;;;;4093860;34;20136;-91
2020/12/27 03:32:46;;;;;;;30.45;10.95;;;17.10;99.90;;;;;;4094132;34;20397;-86
2020/12/27 03:35:15;;;;;;;18.92;10.82;;;17.20;99.90;;;;;;4090354;34;20123;-85
2020/12/27 03:37:43;;;;;;;21.77;10.38;;;17.20;99.90;;;;;;4109165;34;20214;-87
2020/12/27 03:40:13;;;;;;;21.40;8.50;;;17.30;99.90;;;;;;4109617;34;20093;-92
2020/12/27 03:42:41;;;;;;;21.30;6.10;;;17.10;99.90;;;;;;4102145;34;20472;-89
2020/12/27 03:45:10;;;;;;;17.37;10.68;;;17.00;99.90;;;;;;4096828;34;20129;-83
2020/12/27 03:47:38;;;;;;;22.90;11.48;;;17.10;99.90;;;;;;4107466;34;21934;-87
2020/12/27 03:50:07;;;;;;;25.48;12.70;;;17.20;99.90;;;;;;4096571;34;20050;-87
2020/12/27 03:52:35;;;;;;;23.75;12.32;;;17.20;99.90;;;;;;4105147;34;20069;-90
2020/12/27 03:55:05;;;;;;;29.23;11.85;;;17.10;99.90;;;;;;4099796;34;20439;-83
2020/12/27 03:57:33;;;;;;;21.65;11.48;;;17.10;99.90;;;;;;4111824;34;20105;-88
2020/12/27 04:00:03;;;;;;;27.73;11.68;;;17.00;99.90;;;;;;4099358;34;20529;-91
2020/12/27 04:02:31;;;;;;;21.55;12.00;;;16.90;99.90;;;;;;4102832;34;20470;-89
2020/12/27 04:05:01;;;;;;;27.00;7.43;;;16.90;99.90;;;;;;4094300;34;20495;-89
2020/12/27 04:07:32;;;;;;;21.60;5.15;;;16.90;99.90;;;;;;4107041;34;20065;-87
2020/12/27 04:10:15;;;;;;;;;;;16.90;99.90;;;;;;4111460;34;20149;-89
2020/12/27 04:12:43;;;;;;;26.48;5.22;;;16.80;99.90;;;;;;4104430;34;20238;-87
2020/12/27 04:15:11;;;;;;;23.75;5.72;;;16.70;99.90;;;;;;4106591;34;20053;-85
2020/12/27 04:17:42;;;;;;;25.48;11.57;;;16.60;99.90;;;;;;4096396;34;20136;-85
2020/12/27 04:20:10;;;;;;;26.12;10.50;;;16.70;99.90;;;;;;4079956;34;20804;-90
2020/12/27 04:22:38;;;;;;;21.85;5.22;;;16.60;99.90;;;;;;4095221;34;20148;-85
2020/12/27 04:25:09;;;;;;;21.08;10.10;;;16.50;99.90;;;;;;4111994;34;20057;-87
2020/12/27 04:27:37;;;;;;;16.42;9.30;;;16.50;99.90;;;;;;4099450;34;20812;-89
2020/12/27 04:30:07;;;;;;;23.87;5.60;;;16.40;99.90;;;;;;4118156;34;20061;-87
2020/12/27 04:32:38;;;;;;;21.23;5.30;;;16.40;99.90;;;;;;4110619;34;20111;-94
2020/12/27 04:35:08;;;;;;;25.80;4.70;;;16.30;99.90;;;;;;4112203;34;20107;-86
2020/12/27 04:37:37;;;;;;;16.67;3.72;;;16.50;99.50;;;;;;4118068;34;20070;-86
2020/12/27 04:40:06;;;;;;;25.20;4.22;;;16.50;99.20;;;;;;4113103;34;20088;-92
2020/12/27 04:42:34;;;;;;;20.85;4.10;;;16.60;99.40;;;;;;4113462;34;20094;-84
2020/12/27 04:45:04;;;;;;;22.77;4.25;;;16.40;99.90;;;;;;4103990;34;20101;-87
2020/12/27 04:47:36;;;;;;;9.80;2.80;;;16.40;99.90;;;;;;4105904;34;20120;-86
2020/12/27 04:50:05;;;;;;;24.98;3.92;;;16.30;99.90;;;;;;4101225;34;20083;-85
2020/12/27 04:52:33;;;;;;;20.60;4.12;;;16.10;99.90;;;;;;4104466;34;20053;-86
2020/12/27 04:55:01;;;;;;;22.23;3.70;;;16.10;99.90;;;;;;4110404;34;20077;-87
2020/12/27 04:57:34;;;;;;;18.58;4.18;;;16.10;99.90;;;;;;4112733;34;20085;-87
2020/12/27 05:00:06;;;;;;;34.70;5.37;;;16.10;99.90;;;;;;4114621;34;20065;-89
2020/12/27 05:02:36;;;;;;;17.80;3.50;;;16.20;99.90;;;;;;4101463;34;20120;-88
2020/12/27 05:05:12;;;;;;;19.17;3.85;;;16.20;99.90;;;;;;4106744;34;20112;-88
2020/12/27 05:07:43;;;;;;;9.02;3.10;;;16.20;99.90;;;;;;4110575;34;20069;-85
2020/12/27 05:10:12;;;;;;;15.30;3.62;;;16.30;99.90;;;;;;4095917;34;20117;-88
2020/12/27 05:12:41;;;;;;;23.87;3.72;;;16.20;99.90;;;;;;4112562;34;20474;-86
2020/12/27 05:15:09;;;;;;;14.30;4.43;;;16.20;99.90;;;;;;4112820;34;20568;-85
2020/12/27 05:17:37;;;;;;;20.92;4.05;;;16.30;99.90;;;;;;4116062;34;20058;-91
2020/12/27 05:20:12;;;;;;;20.50;4.32;;;16.30;99.90;;;;;;4111765;34;20057;-83
2020/12/27 05:22:41;;;;;;;22.25;3.70;;;16.30;99.90;;;;;;4115712;34;20081;-86
2020/12/27 05:25:09;;;;;;;23.30;3.97;;;16.40;99.90;;;;;;4112868;34;20119;-88
2020/12/27 05:27:43;;;;;;;24.10;4.70;;;16.50;99.90;;;;;;4113256;34;20069;-87
2020/12/27 05:30:12;;;;;;;18.67;3.57;;;16.50;99.90;;;;;;4112208;34;20425;-86
2020/12/27 05:32:45;;;;;;;13.48;3.40;;;16.50;99.90;;;;;;4112802;34;20061;-86
2020/12/27 05:35:16;;;;;;;14.93;3.78;;;16.50;99.90;;;;;;4112643;34;20476;-87
2020/12/27 05:38:04;;;;;;;19.50;3.83;;;16.50;99.90;;;;;;4109322;34;20084;-84
2020/12/27 05:40:40;;;;;;;22.10;3.42;;;16.50;99.90;;;;;;4103079;34;20146;-95
2020/12/27 05:43:16;;;;;;;13.57;3.58;;;16.60;99.90;;;;;;4110764;34;20069;-92
2020/12/27 05:45:45;;;;;;;17.73;3.78;;;16.60;99.90;;;;;;4109634;34;20417;-89
2020/12/27 05:48:14;;;;;;;30.17;4.57;;;16.50;99.90;;;;;;4107702;34;20113;-89
2020/12/27 05:50:43;;;;;;;20.98;3.53;;;16.50;99.80;;;;;;4112198;34;20113;-87
2020/12/27 05:53:20;;;;;;;14.45;2.95;;;16.60;99.70;;;;;;4097601;34;20533;-90
2020/12/27 05:55:51;;;;;;;13.62;3.95;;;16.70;99.30;;;;;;4110951;34;20073;-89
2020/12/27 05:58:22;;;;;;;19.30;4.12;;;16.70;99.90;;;;;;4114510;34;20141;-88
2020/12/27 06:00:53;;;;;;;22.00;4.05;;;16.60;99.90;;;;;;4116065;34;20113;-88
2020/12/27 06:03:29;;;;;;;16.65;3.20;;;16.70;99.90;;;;;;4113325;34;20124;-85
2020/12/27 06:06:00;;;;;;;20.62;3.67;;;16.70;99.90;;;;;;4115582;34;20084;-89
2020/12/27 06:08:48;;;;;;;15.30;3.60;;;16.80;99.90;;;;;;4117829;34;20073;-83
2020/12/27 06:11:24;;;;;;;22.98;3.53;;;16.70;99.80;;;;;;4117809;34;20084;-88
2020/12/27 06:14:13;;;;;;;19.17;3.95;;;16.70;99.60;;;;;;4103295;34;20065;-86
2020/12/27 06:16:57;;;;;;;17.75;4.05;;;16.90;98.60;;;;;;4110521;34;20141;-90
2020/12/27 06:19:36;;;;;;;24.92;4.15;;;16.90;98.90;;;;;;4104198;34;20065;-90
2020/12/27 06:22:05;;;;;;;15.63;6.53;;;16.80;98.50;;;;;;4105592;34;20073;-85
2020/12/27 06:24:34;;;;;;;25.75;12.00;;;16.80;98.60;;;;;;4104391;34;20093;-85
2020/12/27 06:27:04;;;;;;;18.62;8.00;;;16.90;97.70;;;;;;4105139;34;20073;-90
2020/12/27 06:29:41;;;;;;;14.90;3.78;;;17.00;97.50;;;;;;4103870;34;20115;-88
2020/12/27 06:32:15;;;;;;;32.35;8.32;;;17.10;97.20;;;;;;4115409;34;20069;-86
2020/12/27 06:34:43;;;;;;;17.15;3.83;;;17.10;97.20;;;;;;4103540;34;20122;-86
2020/12/27 06:37:17;;;;;;;20.42;3.85;;;17.20;96.30;;;;;;4116051;34;20130;-87
2020/12/27 06:39:47;;;;;;;24.77;8.88;;;17.20;96.30;;;;;;4112733;34;20121;-83
2020/12/27 06:42:30;;;;;;;22.02;5.05;;;17.20;97.10;;;;;;4114493;34;20120;-85
2020/12/27 06:44:58;;;;;;;15.20;3.85;;;17.20;97.20;;;;;;4111898;34;20069;-91
2020/12/27 06:47:58;;;;;;;25.65;11.60;;;17.30;97.20;;;;;;4113483;34;20076;-88
2020/12/27 06:50:27;;;;;;;21.73;12.65;;;17.10;97.50;;;;;;4093607;34;20610;-86
2020/12/27 06:52:56;;;;;;;18.37;12.00;;;17.10;98.10;;;;;;4106251;34;20439;-87
2020/12/27 06:55:34;;;;;;;22.98;12.88;;;17.00;98.50;;;;;;4111663;34;20054;-89
2020/12/27 06:58:24;;;;;;;32.92;13.50;;;17.10;98.50;;;;;;4114799;34;20109;-88
2020/12/27 07:01:10;;;;;;;12.65;10.73;;;17.20;98.00;;;;;;4103792;34;20626;-86
2020/12/27 07:03:39;;;;;;;21.52;12.65;;;17.10;97.90;;;;;;4113424;34;20409;-85
2020/12/27 07:06:25;;;;;;;24.70;12.85;;;17.10;98.50;;;;;;4110567;34;20108;-83
2020/12/27 07:09:02;;;;;;;30.33;12.52;;;17.00;98.70;;;;;;4115249;34;20108;-89
2020/12/27 07:11:32;;;;;;;20.60;12.32;;;17.00;99.40;;;;;;4116421;34;20475;-87
2020/12/27 07:14:02;;;;;;;23.08;12.35;;;17.00;99.70;;;;;;4111812;34;20125;-85
2020/12/27 07:16:35;;;;;;;42.53;11.30;;;17.00;99.90;;;;;;4113554;34;20581;-89
2020/12/27 07:19:04;;;;;;;37.95;13.40;;;16.90;98.60;;;;;;4105591;34;20057;-90
2020/12/27 07:21:37;;;;;;;23.48;11.90;;;16.90;99.00;;;;;;4097594;34;20074;-86
2020/12/27 07:24:11;;;;;;;24.20;11.18;;;16.90;96.10;;;;;;4112663;34;20155;-90
2020/12/27 07:26:42;;;;;;;31.58;11.50;;;17.00;96.90;;;;;;4117344;34;20431;-91
2020/12/27 07:29:20;;;;;;;30.23;13.35;;;16.90;96.80;;;;;;4102572;34;20108;-84
2020/12/27 07:31:52;;;;;;;27.80;3.75;;;16.90;97.40;;;;;;4111981;34;20083;-87
2020/12/27 07:34:24;;;;;;;31.15;5.12;;;16.90;98.40;;;;;;4113741;34;20107;-88
2020/12/27 07:37:03;;;;;;;24.33;4.53;;;16.90;98.90;;;;;;4115519;34;20125;-87
2020/12/27 07:39:58;;;;;;;25.02;9.40;;;16.90;98.70;;;;;;4110692;34;20069;-87
2020/12/27 07:42:34;;;;;;;26.90;6.18;;;17.00;98.90;;;;;;4113050;34;20061;-86
2020/12/27 07:45:11;;;;;;;20.23;4.05;;;17.00;98.90;;;;;;4102131;34;20072;-87
2020/12/27 07:47:40;;;;;;;31.17;10.10;;;17.10;98.20;;;;;;4114842;34;20712;-89
2020/12/27 07:50:16;;;;;;;25.90;8.98;;;17.10;99.10;;;;;;4110528;34;20193;-86
2020/12/27 07:52:46;;;;;;;18.50;9.57;;;17.00;99.40;;;;;;4114706;34;20073;-87
2020/12/27 07:55:22;;;;;;;28.10;9.43;;;17.00;99.00;;;;;;4099818;34;20100;-87
2020/12/27 07:57:51;;;;;;;11.77;3.83;;;17.00;99.90;;;;;;4110044;34;20099;-86
2020/12/27 08:00:27;;;;;;;19.08;9.02;;;17.00;99.90;;;;;;4110284;34;20087;-85
2020/12/27 08:02:56;;;;;;;20.45;7.18;;;17.10;99.90;;;;;;4098718;34;20072;-89
2020/12/27 08:05:24;;;;;;;37.53;8.75;;;17.00;99.90;;;;;;4110368;34;20181;-88
2020/12/27 08:07:55;;;;;;;25.37;5.65;;;17.20;99.90;;;;;;4113022;34;20104;-87
2020/12/27 08:10:25;;;;;;;14.05;4.50;;;17.20;99.90;;;;;;4112942;34;20148;-91
2020/12/27 08:13:01;;;;;;;23.98;8.10;;;;;;;;;;4114706;34;20045;-84
2020/12/27 08:15:30;;;;;;;23.27;6.62;;;17.40;99.90;;;;;;4093708;34;20033;-90
2020/12/27 08:18:04;;;;;;;26.55;4.47;;;17.50;99.90;;;;;;4095335;34;20987;-87
2020/12/27 08:20:49;;;;;;;19.92;4.72;;;17.40;99.90;;;;;;4095966;34;20428;-88
2020/12/27 08:23:18;;;;;;;21.98;14.00;;;17.50;99.90;;;;;;4103830;34;20144;-89
2020/12/27 08:25:55;;;;;;;17.30;5.43;;;17.80;99.90;;;;;;4099126;34;20077;-88
2020/12/27 08:28:23;;;;;;;29.75;11.40;;;17.90;99.90;;;;;;4100301;34;20130;-87
2020/12/27 08:30:51;;;;;;;25.48;13.77;;;;;;;;;;4110568;34;20533;-90
2020/12/27 08:33:20;;;;;;;19.60;4.80;;;;;;;;;;4122756;34;20077;-86
2020/12/27 08:35:49;;;;;;;24.35;4.82;;;;;;;;;;4110725;34;20087;-88
2020/12/27 08:38:58;;;;;;;26.17;5.45;;;18.70;99.90;;;;;;4111828;34;20109;-89
2020/12/27 08:41:37;;;;;;;16.95;5.82;;;19.30;99.90;;;;;;4092218;35;20158;-89
2020/12/27 08:44:14;;;;;;;20.75;5.65;;;18.90;99.90;;;;;;4099867;34;20139;-87
2020/12/27 08:46:44;;;;;;;23.17;5.22;;;19.50;99.90;;;;;;4113026;34;20104;-92
2020/12/27 08:49:19;;;;;;;23.60;11.23;;;;;;;;;;4110881;34;20150;-87
2020/12/27 08:51:53;;;;;;;16.10;6.93;;;;;;;;;;4113067;34;20053;-88
2020/12/27 08:54:22;;;;;;;19.70;5.15;;;;;;;;;;4111892;34;20176;-85
2020/12/27 08:56:50;;;;;;;19.65;4.97;;;;;;;;;;4112880;34;20053;-87
2020/12/27 08:59:18;;;;;;;21.92;5.82;;;;;;;;;;4110544;34;20116;-91
2020/12/27 09:01:50;;;;;;;26.52;10.60;;;;;;;;;;4101918;34;20069;-89
2020/12/27 09:04:21;;;;;;;32.10;8.20;;;;;;;;;;4101010;34;20073;-88
2020/12/27 09:06:56;;;;;;;29.85;7.35;;;20.20;99.90;;;;;;4111597;34;20092;-91
2020/12/27 09:09:24;;;;;;;20.75;7.95;;;20.50;99.90;;;;;;4112687;34;20105;-89
2020/12/27 09:11:53;;;;;;;21.00;7.25;;;;;;;;;;4109441;34;20088;-86
2020/12/27 09:14:37;;;;;;;27.90;10.38;;;;;;;;;;4114092;34;20060;-90
2020/12/27 09:17:14;;;;;;;33.70;14.10;;;;;;;;;;4112769;34;20229;-89
2020/12/27 09:19:46;;;;;;;27.73;13.10;;;;;;;;;;4108956;34;20549;-87
2020/12/27 09:22:15;;;;;;;26.92;8.88;;;;;;;;;;4100935;34;20453;-88
2020/12/27 09:24:43;;;;;;;22.92;6.78;;;;;;;;;;4114505;34;20081;-88
2020/12/27 09:27:11;;;;;;;22.65;9.00;;;;;;;;;;4111015;34;20132;-84
2020/12/27 09:29:40;;;;;;;29.35;11.30;;;;;;;;;;4113128;34;20085;-88
2020/12/27 09:32:09;;;;;;;23.20;8.77;;;;;;;;;;4111876;34;20065;-89
2020/12/27 09:34:38;;;;;;;22.40;6.85;;;;;;;;;;4118273;34;20069;-86
2020/12/27 09:37:19;;;;;;;22.90;7.10;;;;;;;;;;4116575;34;20073;-89
2020/12/27 09:39:56;;;;;;;24.37;11.82;;;;;;;;;;4104763;34;20066;-87
2020/12/27 09:42:27;;;;;;;27.13;9.38;;;;;;;;;;4093377;34;20500;-92
2020/12/27 09:44:56;;;;;;;29.77;11.57;;;;;;;;;;4105525;34;20108;-89
2020/12/27 09:47:30;;;;;;;39.70;12.80;;;;;;;;;;4111078;34;20112;-89
2020/12/27 09:50:07;;;;;;;33.22;11.25;;;;;;;;;;4115125;34;20474;-90
2020/12/27 09:52:46;;;;;;;28.40;8.48;;;;;;;;;;4114516;34;20062;-91
2020/12/27 09:55:17;;;;;;;40.42;7.95;;;;;;;;;;4113038;34;20523;-93
2020/12/27 09:57:46;;;;;;;40.05;14.05;;;;;;;;;;4113718;34;20464;-89
2020/12/27 10:00:14;;;;;;;25.40;9.95;;;;;;;;;;4118166;34;20087;-87
2020/12/27 10:02:43;;;;;;;31.27;10.60;;;24.00;99.90;;;;;;4105558;34;20069;-91
2020/12/27 10:05:11;;;;;;;33.60;12.40;;;24.10;99.90;;;;;;4104615;34;20200;-86
2020/12/27 10:07:40;;;;;;;32.92;10.80;;;24.10;99.90;;;;;;4106258;34;20061;-90
2020/12/27 10:10:10;;;;;;;32.40;10.75;;;24.30;99.90;;;;;;4105831;34;20097;-85
2020/12/27 10:12:38;;;;;;;59.33;16.27;;;24.30;99.90;;;;;;4105328;34;20209;-86
2020/12/27 10:15:08;;;;;;;40.92;14.18;;;24.00;99.90;;;;;;4104101;34;20130;-87
2020/12/27 10:17:36;;;;;;;36.58;11.50;;;24.50;99.90;;;;;;4112528;34;20429;-87
2020/12/27 10:20:10;;;;;;;32.45;13.10;;;24.60;99.90;;;;;;4111623;34;20127;-87
2020/12/27 10:22:38;;;;;;;;;;;24.70;99.90;;;;;;4110238;34;20125;-87
2020/12/27 10:25:06;;;;;;;32.03;8.52;;;24.70;98.90;;;;;;4113400;34;19960;-86
2020/12/27 10:27:35;;;;;;;36.80;12.95;;;25.00;99.90;;;;;;4109308;34;20230;-92
2020/12/27 10:30:05;;;;;;;42.60;17.42;;;24.70;99.50;;;;;;4105672;34;20159;-89
2020/12/27 10:32:32;;;;;;;35.90;9.20;;;24.60;98.80;;;;;;4103826;34;20347;-90
2020/12/27 10:35:00;;;;;;;45.42;10.88;;;25.10;99.70;;;;;;4095671;34;20113;-85
2020/12/27 10:37:28;;;;;;;61.95;13.15;;;25.30;98.80;;;;;;4113049;34;20061;-89
2020/12/27 10:39:56;;;;;;;35.13;8.52;;;24.90;96.30;;;;;;4099878;34;20057;-86
2020/12/27 10:42:24;;;;;;;47.35;10.50;;;25.20;96.50;;;;;;4109361;34;20104;-91
2020/12/27 10:44:52;;;;;;;31.70;10.52;;;25.10;96.60;;;;;;4112950;34;20536;-86
2020/12/27 10:47:20;;;;;;;41.08;9.88;;;25.10;97.60;;;;;;4106953;34;20065;-85
2020/12/27 10:49:48;;;;;;;44.50;12.25;;;25.60;95.50;;;;;;4107150;34;20521;-89
2020/12/27 10:52:17;;;;;;;49.65;13.15;;;25.50;96.40;;;;;;4100107;34;20127;-88
2020/12/27 10:54:44;;;;;;;33.22;10.90;;;25.20;95.50;;;;;;4094973;34;20124;-87
2020/12/27 10:57:12;;;;;;;34.83;12.32;;;25.40;97.00;;;;;;4110478;34;20075;-87
2020/12/27 10:59:41;;;;;;;37.65;7.97;;;25.10;96.70;;;;;;4107924;34;20096;-87
2020/12/27 11:02:09;;;;;;;41.25;12.70;;;25.50;95.20;;;;;;4111581;34;20077;-89
2020/12/27 11:04:37;;;;;;;24.75;8.77;;;25.30;93.20;;;;;;4110480;34;20088;-86
2020/12/27 11:07:07;;;;;;;49.85;10.15;;;25.30;96.10;;;;;;4111212;34;20037;-90
2020/12/27 11:09:35;;;;;;;36.67;9.45;;;25.60;94.60;;;;;;4106394;34;20119;-88
2020/12/27 11:12:02;;;;;;;37.92;10.00;;;26.20;94.40;;;;;;4111187;34;20061;-90
2020/12/27 11:14:31;;;;;;;47.67;11.57;;;26.00;93.20;;;;;;4108889;34;20065;-92
2020/12/27 11:16:58;;;;;;;32.85;7.57;;;25.50;92.20;;;;;;4107452;34;20212;-87
2020/12/27 11:19:27;;;;;;;36.22;9.00;;;25.60;93.90;;;;;;4113485;34;20159;-88
2020/12/27 11:21:55;;;;;;;50.95;8.13;;;26.20;91.30;;;;;;4110772;34;20135;-87
2020/12/27 11:24:23;;;;;;;33.00;7.72;;;26.10;91.50;;;;;;4110135;34;20105;-87
2020/12/27 11:26:54;;;;;;;59.97;10.00;;;26.70;91.80;;;;;;4094089;34;20065;-92
2020/12/27 11:29:23;;;;;;;40.25;8.13;;;26.10;87.70;;;;;;4107151;34;20053;-86
2020/12/27 11:31:54;;;;;;;39.83;8.57;;;26.10;84.90;;;;;;4105313;34;20061;-87
2020/12/27 11:34:21;;;;;;;44.10;8.07;;;26.30;87.40;;;;;;4104737;34;20058;-88
2020/12/27 11:36:50;;;;;;;44.95;7.85;;;26.40;90.50;;;;;;4108323;34;20077;-85
2020/12/27 11:39:18;;;;;;;44.08;7.03;;;26.40;85.90;;;;;;4115143;34;20121;-89
2020/12/27 11:41:52;;;;;;;53.63;6.97;;;26.50;89.40;;;;;;4111775;34;20081;-86
2020/12/27 11:44:20;;;;;;;37.42;7.45;;;26.40;88.80;;;;;;4100770;34;20077;-88
2020/12/27 11:46:48;;;;;;;40.90;7.85;;;26.50;87.40;;;;;;4108955;34;20163;-92
2020/12/27 11:49:16;;;;;;;39.08;7.80;;;26.60;86.50;;;;;;4108813;34;20240;-88
2020/12/27 11:51:46;;;;;;;55.45;7.80;;;26.20;86.50;;;;;;4104989;34;21504;-86
2020/12/27 11:54:15;;;;;;;46.83;7.65;;;26.40;86.30;;;;;;4104424;34;20129;-85
2020/12/27 11:56:44;;;;;;;44.97;7.95;;;25.80;88.20;;;;;;4109310;34;20128;-87
2020/12/27 11:59:12;;;;;;;32.53;6.70;;;26.10;87.70;;;;;;4108319;34;20095;-90
2020/12/27 12:01:45;;;;;;;36.13;8.27;;;26.30;85.70;;;;;;4107564;34;20177;-87
2020/12/27 12:04:13;;;;;;;34.97;7.65;;;26.50;86.10;;;;;;4104086;34;20049;-87
2020/12/27 12:06:42;;;;;;;40.63;7.32;;;26.40;85.90;;;;;;4111462;34;20069;-88
2020/12/27 12:09:11;;;;;;;31.73;6.15;;;27.10;84.50;;;;;;4110731;34;20087;-88
2020/12/27 12:11:41;;;;;;;41.28;7.03;;;26.90;82.10;;;;;;4109517;34;20177;-94
2020/12/27 12:14:10;;;;;;;31.77;6.80;;;26.90;84.30;;;;;;4095973;34;20490;-91
2020/12/27 12:16:37;;;;;;;30.02;6.30;;;27.50;84.30;;;;;;4107105;34;20081;-87
2020/12/27 12:19:06;;;;;;;34.75;6.28;;;27.00;83.10;;;;;;4109802;34;20064;-88
2020/12/27 12:21:34;;;;;;;37.20;6.90;;;27.30;84.80;;;;;;4111772;34;20160;-87
2020/12/27 12:24:03;;;;;;;45.63;8.50;;;26.30;82.00;;;;;;4110211;34;20076;-88
2020/12/27 12:26:32;;;;;;;36.55;7.97;;;26.30;82.60;;;;;;4111979;34;20103;-85
2020/12/27 12:29:00;;;;;;;47.78;7.68;;;26.70;80.80;;;;;;4109079;34;20131;-85
2020/12/27 12:31:28;;;;;;;28.45;5.87;;;27.10;80.40;;;;;;4110171;34;20141;-89
2020/12/27 12:33:56;;;;;;;36.35;8.57;;;27.60;79.80;;;;;;4107471;34;20069;-90
2020/12/27 12:36:25;;;;;;;50.72;9.02;;;26.30;79.10;;;;;;4100895;34;20064;-90
2020/12/27 12:38:53;;;;;;;48.08;8.75;;;26.60;80.40;;;;;;4111213;34;20071;-89
2020/12/27 12:41:26;;;;;;;31.52;5.22;;;25.10;82.60;;;;;;4099897;34;20474;-87
2020/12/27 12:43:54;;;;;;;42.20;6.20;;;24.90;86.40;;;;;;4113075;34;20148;-90
2020/12/27 12:46:23;;;;;;;41.30;5.43;;;24.80;83.50;;;;;;4102285;34;20092;-86
2020/12/27 12:48:53;;;;;;;46.97;5.53;;;24.70;85.40;;;;;;4110844;34;20096;-87
2020/12/27 12:51:23;;;;;;;47.92;6.03;;;24.90;85.70;;;;;;4112212;34;20065;-88
2020/12/27 12:53:51;;;;;;;41.10;6.30;;;24.30;87.30;;;;;;4111186;34;20132;-87
2020/12/27 12:56:19;;;;;;;29.63;5.90;;;24.50;87.10;;;;;;4108242;34;20079;-88
2020/12/27 12:58:47;;;;;;;37.33;7.10;;;24.50;87.00;;;;;;4105105;34;20124;-87
2020/12/27 13:01:17;;;;;;;33.78;7.03;;;24.10;85.50;;;;;;4110585;34;20160;-89
2020/12/27 13:03:47;;;;;;;34.05;6.00;;;24.10;85.50;;;;;;4108532;34;20398;-86
2020/12/27 13:06:17;;;;;;;32.15;6.43;;;24.20;85.50;;;;;;4096430;34;20132;-87